sensor_id;sensor_type;location;lat;lon;timestamp;temperature;humidity
78550;DHT22;68091;52.130;5.570;2023-04-24T00:00:37;9.20;99.90
78550;DHT22;68091;52.130;5.570;2023-04-24T00:03:06;9.20;99.90
78550;DHT22;68091;52.130;5.570;2023-04-24T00:05:33;9.20;99.90
78550;DHT22;68091;52.130;5.570;2023-04-24T00:07:59;9.20;99.90
78550;DHT22;68091;52.130;5.570;2023-04-24T00:10:25;9.20;99.90
78550;DHT22;68091;52.130;5.570;2023-04-24T00:12:51;9.20;99.90
78550;DHT22;68091;52.130;5.570;2023-04-24T00:15:17;9.20;99.90
78550;DHT22;68091;52.130;5.570;2023-04-24T00:17:42;9.20;99.90
78550;DHT22;68091;52.130;5.570;2023-04-24T00:20:08;9.20;99.90
78550;DHT22;68091;52.130;5.570;2023-04-24T00:22:35;9.20;99.90
78550;DHT22;68091;52.130;5.570;2023-04-24T00:25:01;9.30;99.90
78550;DHT22;68091;52.130;5.570;2023-04-24T00:27:27;9.20;99.90
78550;DHT22;68091;52.130;5.570;2023-04-24T00:29:53;9.20;99.90
78550;DHT22;68091;52.130;5.570;2023-04-24T00:32:18;9.20;99.90
78550;DHT22;68091;52.130;5.570;2023-04-24T00:34:44;9.20;99.90
78550;DHT22;68091;52.130;5.570;2023-04-24T00:37:10;9.20;99.90
78550;DHT22;68091;52.130;5.570;2023-04-24T00:39:37;9.20;99.90
78550;DHT22;68091;52.130;5.570;2023-04-24T00:42:03;9.10;99.90
78550;DHT22;68091;52.130;5.570;2023-04-24T00:44:31;9.10;99.90
78550;DHT22;68091;52.130;5.570;2023-04-24T00:46:58;9.20;99.90
78550;DHT22;68091;52.130;5.570;2023-04-24T00:49:24;9.10;99.90
78550;DHT22;68091;52.130;5.570;2023-04-24T00:51:50;9.10;99.90
78550;DHT22;68091;52.130;5.570;2023-04-24T00:54:17;9.10;99.90
78550;DHT22;68091;52.130;5.570;2023-04-24T00:56:44;9.20;99.90
78550;DHT22;68091;52.130;5.570;2023-04-24T00:59:12;9.10;99.90
78550;DHT22;68091;52.130;5.570;2023-04-24T01:01:38;9.10;99.90
78550;DHT22;68091;52.130;5.570;2023-04-24T01:04:09;9.10;99.90
78550;DHT22;68091;52.130;5.570;2023-04-24T01:06:40;9.10;99.90
78550;DHT22;68091;52.130;5.570;2023-04-24T01:09:07;9.10;99.90
78550;DHT22;68091;52.130;5.570;2023-04-24T01:11:37;9.10;99.90
78550;DHT22;68091;52.130;5.570;2023-04-24T01:14:02;9.10;99.90
78550;DHT22;68091;52.130;5.570;2023-04-24T01:16:29;9.10;99.90
78550;DHT22;68091;52.130;5.570;2023-04-24T01:18:55;9.10;99.90
78550;DHT22;68091;52.130;5.570;2023-04-24T01:21:21;9.10;99.90
78550;DHT22;68091;52.130;5.570;2023-04-24T01:23:49;9.20;99.90
78550;DHT22;68091;52.130;5.570;2023-04-24T01:26:17;9.10;99.90
78550;DHT22;68091;52.130;5.570;2023-04-24T01:28:42;9.10;99.90
78550;DHT22;68091;52.130;5.570;2023-04-24T01:31:08;9.10;99.90
78550;DHT22;68091;52.130;5.570;2023-04-24T01:33:34;9.10;99.90
78550;DHT22;68091;52.130;5.570;2023-04-24T01:36:01;9.10;99.90
78550;DHT22;68091;52.130;5.570;2023-04-24T01:38:27;9.10;99.90
78550;DHT22;68091;52.130;5.570;2023-04-24T01:40:53;9.10;99.90
78550;DHT22;68091;52.130;5.570;2023-04-24T01:43:19;9.10;99.90
78550;DHT22;68091;52.130;5.570;2023-04-24T01:45:44;9.10;99.90
78550;DHT22;68091;52.130;5.570;2023-04-24T01:48:12;9.10;99.90
78550;DHT22;68091;52.130;5.570;2023-04-24T01:50:41;9.10;99.90
78550;DHT22;68091;52.130;5.570;2023-04-24T01:53:07;9.10;99.90
78550;DHT22;68091;52.130;5.570;2023-04-24T01:55:33;9.10;99.90
78550;DHT22;68091;52.130;5.570;2023-04-24T01:57:59;9.20;99.90
78550;DHT22;68091;52.130;5.570;2023-04-24T02:00:26;9.40;99.90
78550;DHT22;68091;52.130;5.570;2023-04-24T02:02:51;9.20;99.90
78550;DHT22;68091;52.130;5.570;2023-04-24T02:05:17;9.20;99.90
78550;DHT22;68091;52.130;5.570;2023-04-24T02:07:46;9.20;99.90
78550;DHT22;68091;52.130;5.570;2023-04-24T02:10:12;9.20;99.90
78550;DHT22;68091;52.130;5.570;2023-04-24T02:12:38;9.20;99.90
78550;DHT22;68091;52.130;5.570;2023-04-24T02:15:04;9.20;99.90
78550;DHT22;68091;52.130;5.570;2023-04-24T02:17:30;9.20;99.90
78550;DHT22;68091;52.130;5.570;2023-04-24T02:19:56;9.20;99.90
78550;DHT22;68091;52.130;5.570;2023-04-24T02:22:22;9.10;99.90
78550;DHT22;68091;52.130;5.570;2023-04-24T02:24:48;9.10;99.90
78550;DHT22;68091;52.130;5.570;2023-04-24T02:27:14;9.10;99.90
78550;DHT22;68091;52.130;5.570;2023-04-24T02:29:40;9.10;99.90
78550;DHT22;68091;52.130;5.570;2023-04-24T02:32:09;9.10;99.90
78550;DHT22;68091;52.130;5.570;2023-04-24T02:34:37;9.10;99.90
78550;DHT22;68091;52.130;5.570;2023-04-24T02:37:03;9.20;99.90
78550;DHT22;68091;52.130;5.570;2023-04-24T02:39:32;9.20;99.90
78550;DHT22;68091;52.130;5.570;2023-04-24T02:41:58;9.20;99.90
78550;DHT22;68091;52.130;5.570;2023-04-24T02:44:24;9.10;99.90
78550;DHT22;68091;52.130;5.570;2023-04-24T02:46:49;9.10;99.90
78550;DHT22;68091;52.130;5.570;2023-04-24T02:49:15;8.90;99.90
78550;DHT22;68091;52.130;5.570;2023-04-24T02:51:41;9.10;99.90
78550;DHT22;68091;52.130;5.570;2023-04-24T02:54:10;9.10;99.90
78550;DHT22;68091;52.130;5.570;2023-04-24T02:56:36;9.10;99.90
78550;DHT22;68091;52.130;5.570;2023-04-24T02:59:02;9.10;99.90
78550;DHT22;68091;52.130;5.570;2023-04-24T03:01:28;9.10;99.90
78550;DHT22;68091;52.130;5.570;2023-04-24T03:03:54;9.10;99.90
78550;DHT22;68091;52.130;5.570;2023-04-24T03:06:20;9.10;99.90
78550;DHT22;68091;52.130;5.570;2023-04-24T03:08:46;9.10;99.90
78550;DHT22;68091;52.130;5.570;2023-04-24T03:11:12;9.10;99.90
78550;DHT22;68091;52.130;5.570;2023-04-24T03:13:38;9.20;99.90
78550;DHT22;68091;52.130;5.570;2023-04-24T03:16:04;9.10;99.90
78550;DHT22;68091;52.130;5.570;2023-04-24T03:18:31;9.10;99.90
78550;DHT22;68091;52.130;5.570;2023-04-24T03:20:57;9.10;99.90
78550;DHT22;68091;52.130;5.570;2023-04-24T03:23:23;9.10;99.90
78550;DHT22;68091;52.130;5.570;2023-04-24T03:25:48;9.10;99.90
78550;DHT22;68091;52.130;5.570;2023-04-24T03:28:14;9.10;99.90
78550;DHT22;68091;52.130;5.570;2023-04-24T03:30:40;9.10;99.90
78550;DHT22;68091;52.130;5.570;2023-04-24T03:33:06;9.10;99.90
78550;DHT22;68091;52.130;5.570;2023-04-24T03:35:32;9.10;99.90
78550;DHT22;68091;52.130;5.570;2023-04-24T03:37:58;9.10;99.90
78550;DHT22;68091;52.130;5.570;2023-04-24T03:40:24;9.10;99.90
78550;DHT22;68091;52.130;5.570;2023-04-24T03:42:54;8.90;99.90
78550;DHT22;68091;52.130;5.570;2023-04-24T03:45:20;9.00;99.90
78550;DHT22;68091;52.130;5.570;2023-04-24T03:47:46;9.00;99.90
78550;DHT22;68091;52.130;5.570;2023-04-24T03:50:11;9.00;99.90
78550;DHT22;68091;52.130;5.570;2023-04-24T03:52:37;9.00;99.90
78550;DHT22;68091;52.130;5.570;2023-04-24T03:55:03;9.00;99.90
78550;DHT22;68091;52.130;5.570;2023-04-24T03:57:29;9.10;99.90
78550;DHT22;68091;52.130;5.570;2023-04-24T03:59:54;9.00;99.90
78550;DHT22;68091;52.130;5.570;2023-04-24T04:02:20;9.00;99.90
78550;DHT22;68091;52.130;5.570;2023-04-24T04:04:46;8.90;99.90
78550;DHT22;68091;52.130;5.570;2023-04-24T04:07:12;8.90;99.90
78550;DHT22;68091;52.130;5.570;2023-04-24T04:09:38;8.90;99.90
78550;DHT22;68091;52.130;5.570;2023-04-24T04:12:03;8.90;99.90
78550;DHT22;68091;52.130;5.570;2023-04-24T04:14:29;8.90;99.90
78550;DHT22;68091;52.130;5.570;2023-04-24T04:16:55;8.80;99.90
78550;DHT22;68091;52.130;5.570;2023-04-24T04:19:20;8.80;99.90
78550;DHT22;68091;52.130;5.570;2023-04-24T04:21:46;8.80;99.90
78550;DHT22;68091;52.130;5.570;2023-04-24T04:24:17;8.80;99.90
78550;DHT22;68091;52.130;5.570;2023-04-24T04:26:43;8.80;99.90
78550;DHT22;68091;52.130;5.570;2023-04-24T04:29:12;8.80;99.90
78550;DHT22;68091;52.130;5.570;2023-04-24T04:31:38;8.80;99.90
78550;DHT22;68091;52.130;5.570;2023-04-24T04:34:04;8.80;99.90
78550;DHT22;68091;52.130;5.570;2023-04-24T04:36:29;8.80;99.90
78550;DHT22;68091;52.130;5.570;2023-04-24T04:38:55;8.80;99.90
78550;DHT22;68091;52.130;5.570;2023-04-24T04:41:21;8.90;99.90
78550;DHT22;68091;52.130;5.570;2023-04-24T04:43:47;8.80;99.90
78550;DHT22;68091;52.130;5.570;2023-04-24T04:46:13;8.80;99.90
78550;DHT22;68091;52.130;5.570;2023-04-24T04:48:39;8.80;99.90
78550;DHT22;68091;52.130;5.570;2023-04-24T04:51:04;8.90;99.90
78550;DHT22;68091;52.130;5.570;2023-04-24T04:53:30;8.80;99.90
78550;DHT22;68091;52.130;5.570;2023-04-24T04:55:56;8.80;99.90
78550;DHT22;68091;52.130;5.570;2023-04-24T04:58:28;8.80;99.90
78550;DHT22;68091;52.130;5.570;2023-04-24T05:00:54;8.80;99.90
78550;DHT22;68091;52.130;5.570;2023-04-24T05:03:19;8.80;99.90
78550;DHT22;68091;52.130;5.570;2023-04-24T05:05:45;8.80;99.90
78550;DHT22;68091;52.130;5.570;2023-04-24T05:08:10;8.80;99.90
78550;DHT22;68091;52.130;5.570;2023-04-24T05:10:36;8.90;99.90
78550;DHT22;68091;52.130;5.570;2023-04-24T05:13:02;8.90;99.90
78550;DHT22;68091;52.130;5.570;2023-04-24T05:15:28;8.90;99.90
78550;DHT22;68091;52.130;5.570;2023-04-24T05:17:54;8.90;99.90
78550;DHT22;68091;52.130;5.570;2023-04-24T05:20:20;8.90;99.90
78550;DHT22;68091;52.130;5.570;2023-04-24T05:22:45;8.90;99.90
78550;DHT22;68091;52.130;5.570;2023-04-24T05:25:11;9.00;99.90
78550;DHT22;68091;52.130;5.570;2023-04-24T05:27:37;9.00;99.90
78550;DHT22;68091;52.130;5.570;2023-04-24T05:30:03;9.00;99.90
78550;DHT22;68091;52.130;5.570;2023-04-24T05:32:29;9.00;99.90
78550;DHT22;68091;52.130;5.570;2023-04-24T05:34:55;9.00;99.90
78550;DHT22;68091;52.130;5.570;2023-04-24T05:37:21;9.00;99.90
78550;DHT22;68091;52.130;5.570;2023-04-24T05:39:47;9.10;99.90
78550;DHT22;68091;52.130;5.570;2023-04-24T05:42:12;9.10;99.90
78550;DHT22;68091;52.130;5.570;2023-04-24T05:44:38;9.10;99.90
78550;DHT22;68091;52.130;5.570;2023-04-24T05:47:04;9.20;99.90
78550;DHT22;68091;52.130;5.570;2023-04-24T05:49:29;9.20;99.90
78550;DHT22;68091;52.130;5.570;2023-04-24T05:51:55;9.30;99.90
78550;DHT22;68091;52.130;5.570;2023-04-24T05:54:21;9.20;99.90
78550;DHT22;68091;52.130;5.570;2023-04-24T05:56:46;9.30;99.90
78550;DHT22;68091;52.130;5.570;2023-04-24T05:59:12;9.30;99.90
78550;DHT22;68091;52.130;5.570;2023-04-24T06:01:37;9.30;99.90
78550;DHT22;68091;52.130;5.570;2023-04-24T06:04:03;9.40;99.90
78550;DHT22;68091;52.130;5.570;2023-04-24T06:06:29;9.40;99.90
78550;DHT22;68091;52.130;5.570;2023-04-24T06:08:55;9.30;99.90
78550;DHT22;68091;52.130;5.570;2023-04-24T06:11:22;9.30;99.90
78550;DHT22;68091;52.130;5.570;2023-04-24T06:13:50;9.20;99.90
78550;DHT22;68091;52.130;5.570;2023-04-24T06:16:17;9.20;99.90
78550;DHT22;68091;52.130;5.570;2023-04-24T06:18:43;9.10;99.90
78550;DHT22;68091;52.130;5.570;2023-04-24T06:21:08;9.10;99.90
78550;DHT22;68091;52.130;5.570;2023-04-24T06:23:37;9.10;99.90
78550;DHT22;68091;52.130;5.570;2023-04-24T06:26:02;9.10;99.90
78550;DHT22;68091;52.130;5.570;2023-04-24T06:28:28;9.10;99.90
78550;DHT22;68091;52.130;5.570;2023-04-24T06:30:54;9.10;99.90
78550;DHT22;68091;52.130;5.570;2023-04-24T06:33:19;9.10;99.90
78550;DHT22;68091;52.130;5.570;2023-04-24T06:35:45;9.00;99.90
78550;DHT22;68091;52.130;5.570;2023-04-24T06:38:11;9.00;99.90
78550;DHT22;68091;52.130;5.570;2023-04-24T06:40:36;8.90;99.90
78550;DHT22;68091;52.130;5.570;2023-04-24T06:43:02;8.90;99.90
78550;DHT22;68091;52.130;5.570;2023-04-24T06:45:28;8.90;99.90
78550;DHT22;68091;52.130;5.570;2023-04-24T06:47:54;8.90;99.90
78550;DHT22;68091;52.130;5.570;2023-04-24T06:50:20;8.90;99.90
78550;DHT22;68091;52.130;5.570;2023-04-24T06:52:46;8.80;99.90
78550;DHT22;68091;52.130;5.570;2023-04-24T06:55:11;8.80;99.90
78550;DHT22;68091;52.130;5.570;2023-04-24T06:57:37;8.80;99.90
78550;DHT22;68091;52.130;5.570;2023-04-24T07:00:03;8.80;99.90
78550;DHT22;68091;52.130;5.570;2023-04-24T07:02:30;8.80;99.90
78550;DHT22;68091;52.130;5.570;2023-04-24T07:04:55;8.80;99.90
78550;DHT22;68091;52.130;5.570;2023-04-24T07:07:22;8.80;99.90
78550;DHT22;68091;52.130;5.570;2023-04-24T07:09:49;8.90;99.90
78550;DHT22;68091;52.130;5.570;2023-04-24T07:12:16;8.90;99.90
78550;DHT22;68091;52.130;5.570;2023-04-24T07:14:42;8.80;99.90
78550;DHT22;68091;52.130;5.570;2023-04-24T07:17:08;8.80;99.90
78550;DHT22;68091;52.130;5.570;2023-04-24T07:19:34;8.70;99.90
78550;DHT22;68091;52.130;5.570;2023-04-24T07:22:00;8.80;99.90
78550;DHT22;68091;52.130;5.570;2023-04-24T07:24:26;8.80;99.90
78550;DHT22;68091;52.130;5.570;2023-04-24T07:26:52;8.80;99.90
78550;DHT22;68091;52.130;5.570;2023-04-24T07:29:18;8.80;99.90
78550;DHT22;68091;52.130;5.570;2023-04-24T07:31:45;8.80;99.90
78550;DHT22;68091;52.130;5.570;2023-04-24T07:34:10;8.80;99.90
78550;DHT22;68091;52.130;5.570;2023-04-24T07:36:36;8.60;99.90
78550;DHT22;68091;52.130;5.570;2023-04-24T07:39:04;8.60;99.90
78550;DHT22;68091;52.130;5.570;2023-04-24T07:41:29;8.60;99.90
78550;DHT22;68091;52.130;5.570;2023-04-24T07:43:55;8.60;99.90
78550;DHT22;68091;52.130;5.570;2023-04-24T07:46:20;8.60;99.90
78550;DHT22;68091;52.130;5.570;2023-04-24T07:48:46;8.50;99.90
78550;DHT22;68091;52.130;5.570;2023-04-24T07:51:14;8.50;99.90
78550;DHT22;68091;52.130;5.570;2023-04-24T07:53:40;8.50;99.90
78550;DHT22;68091;52.130;5.570;2023-04-24T07:56:06;8.60;99.90
78550;DHT22;68091;52.130;5.570;2023-04-24T07:58:31;8.60;99.90
78550;DHT22;68091;52.130;5.570;2023-04-24T08:00:57;8.70;99.90
78550;DHT22;68091;52.130;5.570;2023-04-24T08:03:23;8.60;99.90
78550;DHT22;68091;52.130;5.570;2023-04-24T08:05:50;8.50;99.90
78550;DHT22;68091;52.130;5.570;2023-04-24T08:08:16;8.40;99.90
78550;DHT22;68091;52.130;5.570;2023-04-24T08:10:42;8.40;99.90
78550;DHT22;68091;52.130;5.570;2023-04-24T08:13:07;8.50;99.90
78550;DHT22;68091;52.130;5.570;2023-04-24T08:15:33;8.50;99.90
78550;DHT22;68091;52.130;5.570;2023-04-24T08:17:59;8.50;99.90
78550;DHT22;68091;52.130;5.570;2023-04-24T08:20:25;8.50;99.90
78550;DHT22;68091;52.130;5.570;2023-04-24T08:22:50;8.50;99.90
78550;DHT22;68091;52.130;5.570;2023-04-24T08:25:16;8.50;99.90
78550;DHT22;68091;52.130;5.570;2023-04-24T08:27:43;8.60;99.90
78550;DHT22;68091;52.130;5.570;2023-04-24T08:30:08;8.60;99.90
78550;DHT22;68091;52.130;5.570;2023-04-24T08:32:35;8.50;99.90
78550;DHT22;68091;52.130;5.570;2023-04-24T08:35:00;8.50;99.90
78550;DHT22;68091;52.130;5.570;2023-04-24T08:37:26;8.50;99.90
78550;DHT22;68091;52.130;5.570;2023-04-24T08:39:53;8.40;99.90
78550;DHT22;68091;52.130;5.570;2023-04-24T08:42:19;8.40;99.90
78550;DHT22;68091;52.130;5.570;2023-04-24T08:44:45;8.40;99.90
78550;DHT22;68091;52.130;5.570;2023-04-24T08:47:11;8.40;99.90
78550;DHT22;68091;52.130;5.570;2023-04-24T08:49:37;8.40;99.90
78550;DHT22;68091;52.130;5.570;2023-04-24T08:52:03;8.30;99.90
78550;DHT22;68091;52.130;5.570;2023-04-24T08:54:29;8.40;99.90
78550;DHT22;68091;52.130;5.570;2023-04-24T08:56:56;8.40;99.90
78550;DHT22;68091;52.130;5.570;2023-04-24T08:59:23;8.40;99.90
78550;DHT22;68091;52.130;5.570;2023-04-24T09:01:50;8.30;99.90
78550;DHT22;68091;52.130;5.570;2023-04-24T09:04:16;8.40;99.90
78550;DHT22;68091;52.130;5.570;2023-04-24T09:06:45;8.40;99.90
78550;DHT22;68091;52.130;5.570;2023-04-24T09:09:11;8.40;99.90
78550;DHT22;68091;52.130;5.570;2023-04-24T09:11:37;8.50;99.90
78550;DHT22;68091;52.130;5.570;2023-04-24T09:14:02;8.60;99.90
78550;DHT22;68091;52.130;5.570;2023-04-24T09:16:29;8.60;99.90
78550;DHT22;68091;52.130;5.570;2023-04-24T09:18:55;8.70;99.90
78550;DHT22;68091;52.130;5.570;2023-04-24T09:21:21;8.70;99.90
78550;DHT22;68091;52.130;5.570;2023-04-24T09:23:47;8.70;99.90
78550;DHT22;68091;52.130;5.570;2023-04-24T09:26:22;8.70;99.90
78550;DHT22;68091;52.130;5.570;2023-04-24T09:28:48;8.70;99.90
78550;DHT22;68091;52.130;5.570;2023-04-24T09:31:17;8.80;99.90
78550;DHT22;68091;52.130;5.570;2023-04-24T09:33:53;8.80;99.90
78550;DHT22;68091;52.130;5.570;2023-04-24T09:36:19;9.00;99.90
78550;DHT22;68091;52.130;5.570;2023-04-24T09:38:53;9.10;99.90
78550;DHT22;68091;52.130;5.570;2023-04-24T09:41:20;9.00;99.90
78550;DHT22;68091;52.130;5.570;2023-04-24T09:43:46;9.00;99.90
78550;DHT22;68091;52.130;5.570;2023-04-24T09:46:12;9.10;99.90
78550;DHT22;68091;52.130;5.570;2023-04-24T09:48:38;9.20;99.90
78550;DHT22;68091;52.130;5.570;2023-04-24T09:51:04;9.30;99.90
78550;DHT22;68091;52.130;5.570;2023-04-24T09:53:36;9.50;99.90
78550;DHT22;68091;52.130;5.570;2023-04-24T09:56:03;9.60;99.90
78550;DHT22;68091;52.130;5.570;2023-04-24T09:58:32;9.70;99.90
78550;DHT22;68091;52.130;5.570;2023-04-24T10:01:00;9.80;99.90
78550;DHT22;68091;52.130;5.570;2023-04-24T10:03:26;9.90;99.90
78550;DHT22;68091;52.130;5.570;2023-04-24T10:05:57;9.50;99.90
78550;DHT22;68091;52.130;5.570;2023-04-24T10:08:23;9.30;99.90
78550;DHT22;68091;52.130;5.570;2023-04-24T10:10:49;9.20;99.90
78550;DHT22;68091;52.130;5.570;2023-04-24T10:13:15;9.20;99.90
78550;DHT22;68091;52.130;5.570;2023-04-24T10:15:41;9.30;99.90
78550;DHT22;68091;52.130;5.570;2023-04-24T10:18:07;9.40;99.90
78550;DHT22;68091;52.130;5.570;2023-04-24T10:20:33;9.50;99.90
78550;DHT22;68091;52.130;5.570;2023-04-24T10:23:00;9.60;99.90
78550;DHT22;68091;52.130;5.570;2023-04-24T10:25:27;9.50;99.90
78550;DHT22;68091;52.130;5.570;2023-04-24T10:27:53;9.40;99.90
78550;DHT22;68091;52.130;5.570;2023-04-24T10:30:22;9.40;99.90
78550;DHT22;68091;52.130;5.570;2023-04-24T10:32:48;9.50;99.90
78550;DHT22;68091;52.130;5.570;2023-04-24T10:35:14;9.60;99.90
78550;DHT22;68091;52.130;5.570;2023-04-24T10:37:45;9.70;99.90
78550;DHT22;68091;52.130;5.570;2023-04-24T10:40:11;9.70;99.90
78550;DHT22;68091;52.130;5.570;2023-04-24T10:42:40;9.80;99.90
78550;DHT22;68091;52.130;5.570;2023-04-24T10:45:19;9.90;99.90
78550;DHT22;68091;52.130;5.570;2023-04-24T10:47:59;10.10;99.90
78550;DHT22;68091;52.130;5.570;2023-04-24T10:50:29;10.30;99.90
78550;DHT22;68091;52.130;5.570;2023-04-24T10:53:05;10.30;99.90
78550;DHT22;68091;52.130;5.570;2023-04-24T10:58:09;10.60;99.90
78550;DHT22;68091;52.130;5.570;2023-04-24T11:00:38;10.70;99.90
78550;DHT22;68091;52.130;5.570;2023-04-24T11:03:26;10.90;99.90
78550;DHT22;68091;52.130;5.570;2023-04-24T11:05:53;10.40;99.90
78550;DHT22;68091;52.130;5.570;2023-04-24T11:11:22;10.10;99.90
78550;DHT22;68091;52.130;5.570;2023-04-24T11:19:10;9.60;99.90
78550;DHT22;68091;52.130;5.570;2023-04-24T11:21:40;9.50;99.90
78550;DHT22;68091;52.130;5.570;2023-04-24T11:26:51;9.20;99.90
78550;DHT22;68091;52.130;5.570;2023-04-24T11:29:19;9.10;99.90
78550;DHT22;68091;52.130;5.570;2023-04-24T11:31:45;9.20;99.90
78550;DHT22;68091;52.130;5.570;2023-04-24T11:34:16;9.20;99.90
78550;DHT22;68091;52.130;5.570;2023-04-24T11:36:43;9.10;99.90
78550;DHT22;68091;52.130;5.570;2023-04-24T11:39:08;9.20;99.90
78550;DHT22;68091;52.130;5.570;2023-04-24T11:41:35;9.40;99.90
78550;DHT22;68091;52.130;5.570;2023-04-24T11:44:01;9.70;99.90
78550;DHT22;68091;52.130;5.570;2023-04-24T11:46:30;9.80;99.90
78550;DHT22;68091;52.130;5.570;2023-04-24T11:48:57;10.10;99.90
78550;DHT22;68091;52.130;5.570;2023-04-24T11:51:23;10.50;99.90
78550;DHT22;68091;52.130;5.570;2023-04-24T11:53:50;10.90;99.90
78550;DHT22;68091;52.130;5.570;2023-04-24T11:56:21;10.90;99.90
78550;DHT22;68091;52.130;5.570;2023-04-24T11:58:47;10.70;99.90
78550;DHT22;68091;52.130;5.570;2023-04-24T12:01:13;10.50;99.90
78550;DHT22;68091;52.130;5.570;2023-04-24T12:03:38;10.40;99.90
78550;DHT22;68091;52.130;5.570;2023-04-24T12:06:05;10.60;99.90
78550;DHT22;68091;52.130;5.570;2023-04-24T12:08:33;10.70;99.90
78550;DHT22;68091;52.130;5.570;2023-04-24T12:11:00;11.20;99.90
78550;DHT22;68091;52.130;5.570;2023-04-24T12:13:26;11.40;99.90
78550;DHT22;68091;52.130;5.570;2023-04-24T12:15:52;11.60;99.90
78550;DHT22;68091;52.130;5.570;2023-04-24T12:18:23;11.70;99.90
78550;DHT22;68091;52.130;5.570;2023-04-24T12:20:49;11.60;99.90
78550;DHT22;68091;52.130;5.570;2023-04-24T12:23:15;11.70;99.90
78550;DHT22;68091;52.130;5.570;2023-04-24T12:25:41;11.20;99.90
78550;DHT22;68091;52.130;5.570;2023-04-24T12:30:34;10.60;99.90
78550;DHT22;68091;52.130;5.570;2023-04-24T12:33:00;10.40;99.90
78550;DHT22;68091;52.130;5.570;2023-04-24T12:35:28;10.30;99.90
78550;DHT22;68091;52.130;5.570;2023-04-24T12:38:12;10.20;99.90
78550;DHT22;68091;52.130;5.570;2023-04-24T12:40:39;10.10;99.90
78550;DHT22;68091;52.130;5.570;2023-04-24T12:43:13;10.00;99.90
78550;DHT22;68091;52.130;5.570;2023-04-24T12:45:39;10.00;99.90
78550;DHT22;68091;52.130;5.570;2023-04-24T12:48:11;10.10;99.90
78550;DHT22;68091;52.130;5.570;2023-04-24T12:50:36;10.10;99.90
78550;DHT22;68091;52.130;5.570;2023-04-24T12:53:03;10.10;99.90
78550;DHT22;68091;52.130;5.570;2023-04-24T12:55:28;10.20;99.90
78550;DHT22;68091;52.130;5.570;2023-04-24T12:57:54;10.40;99.90
78550;DHT22;68091;52.130;5.570;2023-04-24T13:00:21;10.60;99.90
78550;DHT22;68091;52.130;5.570;2023-04-24T13:02:47;10.80;99.90
78550;DHT22;68091;52.130;5.570;2023-04-24T13:05:18;10.70;99.90
78550;DHT22;68091;52.130;5.570;2023-04-24T13:07:44;10.60;99.90
78550;DHT22;68091;52.130;5.570;2023-04-24T13:10:09;10.40;99.90
78550;DHT22;68091;52.130;5.570;2023-04-24T13:12:35;10.20;99.90
78550;DHT22;68091;52.130;5.570;2023-04-24T13:15:01;10.10;99.90
78550;DHT22;68091;52.130;5.570;2023-04-24T13:17:26;10.00;99.90
78550;DHT22;68091;52.130;5.570;2023-04-24T13:19:53;9.60;99.90
78550;DHT22;68091;52.130;5.570;2023-04-24T13:22:19;9.40;99.90
78550;DHT22;68091;52.130;5.570;2023-04-24T13:24:45;9.40;99.90
78550;DHT22;68091;52.130;5.570;2023-04-24T13:27:13;9.70;99.90
78550;DHT22;68091;52.130;5.570;2023-04-24T13:29:45;10.10;99.90
78550;DHT22;68091;52.130;5.570;2023-04-24T13:32:11;10.40;99.90
78550;DHT22;68091;52.130;5.570;2023-04-24T13:34:37;10.70;99.90
78550;DHT22;68091;52.130;5.570;2023-04-24T13:37:03;10.70;99.90
78550;DHT22;68091;52.130;5.570;2023-04-24T13:39:33;10.70;99.90
78550;DHT22;68091;52.130;5.570;2023-04-24T13:41:58;11.10;99.90
78550;DHT22;68091;52.130;5.570;2023-04-24T13:44:24;11.40;99.90
78550;DHT22;68091;52.130;5.570;2023-04-24T13:46:51;12.10;99.90
78550;DHT22;68091;52.130;5.570;2023-04-24T13:49:19;12.40;99.90
78550;DHT22;68091;52.130;5.570;2023-04-24T13:51:45;12.10;99.90
78550;DHT22;68091;52.130;5.570;2023-04-24T13:54:11;11.90;99.90
78550;DHT22;68091;52.130;5.570;2023-04-24T13:56:40;11.90;99.90
78550;DHT22;68091;52.130;5.570;2023-04-24T13:59:05;11.60;99.90
78550;DHT22;68091;52.130;5.570;2023-04-24T14:01:31;11.30;99.90
78550;DHT22;68091;52.130;5.570;2023-04-24T14:03:57;10.80;99.90
78550;DHT22;68091;52.130;5.570;2023-04-24T14:06:26;10.50;99.90
78550;DHT22;68091;52.130;5.570;2023-04-24T14:08:51;10.60;99.90
78550;DHT22;68091;52.130;5.570;2023-04-24T14:11:18;10.60;99.90
78550;DHT22;68091;52.130;5.570;2023-04-24T14:13:43;10.70;99.90
78550;DHT22;68091;52.130;5.570;2023-04-24T14:16:12;11.10;99.90
78550;DHT22;68091;52.130;5.570;2023-04-24T14:18:37;12.30;99.90
78550;DHT22;68091;52.130;5.570;2023-04-24T14:21:03;13.00;99.90
78550;DHT22;68091;52.130;5.570;2023-04-24T14:23:29;12.80;99.60
78550;DHT22;68091;52.130;5.570;2023-04-24T14:25:56;12.30;99.90
78550;DHT22;68091;52.130;5.570;2023-04-24T14:28:22;12.20;99.70
78550;DHT22;68091;52.130;5.570;2023-04-24T14:30:47;11.70;99.90
78550;DHT22;68091;52.130;5.570;2023-04-24T14:33:13;11.70;99.90
78550;DHT22;68091;52.130;5.570;2023-04-24T14:35:40;11.40;99.70
78550;DHT22;68091;52.130;5.570;2023-04-24T14:38:08;11.40;99.90
78550;DHT22;68091;52.130;5.570;2023-04-24T14:40:34;11.40;99.90
78550;DHT22;68091;52.130;5.570;2023-04-24T14:43:00;11.10;99.90
78550;DHT22;68091;52.130;5.570;2023-04-24T14:45:29;11.00;99.90
78550;DHT22;68091;52.130;5.570;2023-04-24T14:47:55;10.90;99.90
78550;DHT22;68091;52.130;5.570;2023-04-24T14:50:20;10.90;99.90
78550;DHT22;68091;52.130;5.570;2023-04-24T14:52:46;10.80;99.90
78550;DHT22;68091;52.130;5.570;2023-04-24T14:55:12;11.20;99.90
78550;DHT22;68091;52.130;5.570;2023-04-24T14:57:37;11.50;99.80
78550;DHT22;68091;52.130;5.570;2023-04-24T15:00:04;11.20;99.60
78550;DHT22;68091;52.130;5.570;2023-04-24T15:02:32;11.10;99.90
78550;DHT22;68091;52.130;5.570;2023-04-24T15:04:58;10.70;99.90
78550;DHT22;68091;52.130;5.570;2023-04-24T15:07:24;10.60;99.90
78550;DHT22;68091;52.130;5.570;2023-04-24T15:09:50;10.40;99.90
78550;DHT22;68091;52.130;5.570;2023-04-24T15:12:15;10.60;99.90
78550;DHT22;68091;52.130;5.570;2023-04-24T15:14:41;10.60;99.90
78550;DHT22;68091;52.130;5.570;2023-04-24T15:17:07;10.60;99.90
78550;DHT22;68091;52.130;5.570;2023-04-24T15:19:32;10.40;99.90
78550;DHT22;68091;52.130;5.570;2023-04-24T15:21:58;10.40;99.90
78550;DHT22;68091;52.130;5.570;2023-04-24T15:24:24;10.20;99.90
78550;DHT22;68091;52.130;5.570;2023-04-24T15:26:49;10.00;99.90
78550;DHT22;68091;52.130;5.570;2023-04-24T15:29:15;9.60;99.90
78550;DHT22;68091;52.130;5.570;2023-04-24T15:31:41;9.40;99.90
78550;DHT22;68091;52.130;5.570;2023-04-24T15:34:06;9.70;99.90
78550;DHT22;68091;52.130;5.570;2023-04-24T15:36:32;10.50;99.90
78550;DHT22;68091;52.130;5.570;2023-04-24T15:38:58;10.50;99.90
78550;DHT22;68091;52.130;5.570;2023-04-24T15:41:23;10.40;99.90
78550;DHT22;68091;52.130;5.570;2023-04-24T15:43:49;10.60;99.90
78550;DHT22;68091;52.130;5.570;2023-04-24T15:46:15;10.70;99.90
78550;DHT22;68091;52.130;5.570;2023-04-24T15:48:44;10.40;99.90
78550;DHT22;68091;52.130;5.570;2023-04-24T15:51:09;12.00;99.90
78550;DHT22;68091;52.130;5.570;2023-04-24T15:53:38;14.10;99.20